Time;durP1;ratioP1;P1;durP2;ratioP2;P2;SDS_P1;SDS_P2;PMS_P1;PMS_P2;Temp;Humidity;BMP_temperature;BMP_pressure;BME280_temperature;BME280_humidity;BME280_pressure;Samples;Min_cycle;Max_cycle;Signal;HPM_P1;HPM_P2
2023/04/18 00:00:48;;;;;;;55.63;46.90;;;;;;;;;;4997491;28;20268;-51
2023/04/18 00:03:14;;;;;;;53.88;46.13;;;;;;;;;;4996122;28;20518;-51
2023/04/18 00:05:40;;;;;;;52.60;46.22;;;;;;;;;;4996987;28;20185;-51
2023/04/18 00:08:06;;;;;;;51.53;44.75;;;;;;;;;;4996730;28;20650;-51
2023/04/18 00:10:32;;;;;;;51.03;44.13;;;;;;;;;;4995320;28;20552;-51
2023/04/18 00:12:59;;;;;;;50.88;43.22;;;;;;;;;;4996817;28;20185;-51
2023/04/18 00:15:25;;;;;;;50.33;43.17;;;;;;;;;;4997424;28;20197;-51
2023/04/18 00:17:51;;;;;;;49.15;42.67;;;;;;;;;;4996626;28;20185;-51
2023/04/18 00:20:17;;;;;;;50.20;42.20;;;;;;;;;;4996636;28;20185;-51
2023/04/18 00:22:45;;;;;;;46.30;39.97;;;;;;;;;;4997807;28;20330;-51
2023/04/18 00:25:11;;;;;;;46.10;40.17;;;;;;;;;;4996098;28;20193;-51
2023/04/18 00:27:40;;;;;;;42.50;37.88;;;;;;;;;;4997120;28;20185;-51
2023/04/18 00:30:07;;;;;;;43.42;38.55;;;;;;;;;;4996732;28;20468;-51
2023/04/18 00:32:33;;;;;;;43.60;38.50;;;;;;;;;;4996907;28;20260;-51
2023/04/18 00:34:59;;;;;;;42.33;37.45;;;;;;;;;;4995373;28;20303;-52
2023/04/18 00:37:25;;;;;;;42.75;35.70;;;;;;;;;;4997018;28;20177;-51
2023/04/18 00:39:52;;;;;;;42.38;37.75;;;;;;;;;;4997318;28;20472;-51
2023/04/18 00:42:19;;;;;;;41.30;35.72;;;;;;;;;;4996018;28;20193;-51
2023/04/18 00:44:45;;;;;;;41.28;34.47;;;;;;;;;;4994985;28;20815;-51
2023/04/18 00:47:11;;;;;;;38.97;34.70;;;;;;;;;;4995488;28;20189;-51
2023/04/18 00:49:37;;;;;;;37.47;32.78;;;;;;;;;;4979714;28;20397;-51
2023/04/18 00:52:03;;;;;;;38.08;32.70;;;;;;;;;;4996791;28;20636;-51
2023/04/18 00:54:29;;;;;;;37.47;32.88;;;;;;;;;;4993295;28;20308;-51
2023/04/18 00:56:55;;;;;;;37.10;32.20;;;;;;;;;;4994362;28;20196;-52
2023/04/18 00:59:21;;;;;;;37.22;33.13;;;;;;;;;;4995540;28;20201;-52
2023/04/18 01:01:47;;;;;;;35.97;31.65;;;;;;;;;;4996186;28;20188;-52
2023/04/18 01:04:13;;;;;;;38.38;33.08;;;;;;;;;;4994282;28;20192;-51
2023/04/18 01:06:39;;;;;;;37.00;30.85;;;;;;;;;;4996145;28;20189;-51
2023/04/18 01:09:05;;;;;;;34.75;30.50;;;;;;;;;;4995730;28;20181;-51
2023/04/18 01:11:31;;;;;;;33.95;30.08;;;;;;;;;;4994218;28;20180;-51
2023/04/18 01:14:07;;;;;;;35.03;30.48;;;;;;;;;;4994928;28;20181;-51
2023/04/18 01:16:35;;;;;;;33.42;29.10;;;;;;;;;;4995505;28;20188;-51
2023/04/18 01:19:02;;;;;;;34.65;30.17;;;;;;;;;;4998018;28;20431;-52
2023/04/18 01:21:30;;;;;;;33.38;29.75;;;;;;;;;;4996593;28;20257;-51
2023/04/18 01:23:59;;;;;;;34.03;29.05;;;;;;;;;;4994976;28;20178;-51
2023/04/18 01:26:25;;;;;;;31.08;27.45;;;;;;;;;;4995279;28;20185;-51
2023/04/18 01:28:51;;;;;;;30.27;26.33;;;;;;;;;;4994249;28;20193;-51
2023/04/18 01:31:17;;;;;;;30.60;27.25;;;;;;;;;;4996350;28;20185;-51
2023/04/18 01:33:43;;;;;;;29.67;26.52;;;;;;;;;;4994652;28;20204;-51
2023/04/18 01:36:08;;;;;;;29.42;26.17;;;;;;;;;;4995109;28;20221;-51
2023/04/18 01:38:34;;;;;;;28.38;25.38;;;;;;;;;;4994113;28;20449;-52
2023/04/18 01:41:01;;;;;;;28.45;25.25;;;;;;;;;;4995367;28;20188;-51
2023/04/18 01:43:27;;;;;;;28.27;25.17;;;;;;;;;;4993367;28;20496;-51
2023/04/18 01:45:53;;;;;;;28.25;25.02;;;;;;;;;;4995603;28;20185;-52
2023/04/18 01:48:18;;;;;;;26.20;23.40;;;;;;;;;;4994642;28;20209;-51
2023/04/18 01:50:44;;;;;;;25.05;22.35;;;;;;;;;;4995318;28;20181;-51
2023/04/18 01:53:10;;;;;;;25.88;23.00;;;;;;;;;;4993535;28;20243;-51
2023/04/18 01:55:36;;;;;;;25.77;22.80;;;;;;;;;;4995344;28;20209;-51
2023/04/18 01:58:02;;;;;;;26.75;23.35;;;;;;;;;;4992510;28;20217;-51
2023/04/18 02:00:28;;;;;;;26.23;23.08;;;;;;;;;;4995006;28;20486;-51
2023/04/18 02:02:54;;;;;;;24.65;22.05;;;;;;;;;;4994993;28;20185;-52
2023/04/18 02:05:20;;;;;;;26.42;23.25;;;;;;;;;;4991662;28;20196;-52
2023/04/18 02:07:48;;;;;;;25.75;22.83;;;;;;;;;;4994532;28;20288;-52
2023/04/18 02:10:13;;;;;;;23.70;20.85;;;;;;;;;;4994345;28;20200;-51
2023/04/18 02:12:39;;;;;;;24.73;21.77;;;;;;;;;;4995210;28;20197;-51
2023/04/18 02:15:06;;;;;;;22.52;19.90;;;;;;;;;;4992488;28;20232;-51
2023/04/18 02:17:32;;;;;;;23.23;19.98;;;;;;;;;;4994946;28;20428;-51
2023/04/18 02:19:58;;;;;;;23.73;21.13;;;;;;;;;;4995385;28;20641;-51
2023/04/18 02:22:24;;;;;;;21.10;18.83;;;;;;;;;;4993567;28;20260;-51
2023/04/18 02:24:50;;;;;;;21.98;19.52;;;;;;;;;;4994623;28;20231;-51
2023/04/18 02:27:16;;;;;;;21.88;19.55;;;;;;;;;;4993531;28;20189;-52
2023/04/18 02:29:41;;;;;;;21.85;19.42;;;;;;;;;;4994170;28;20189;-51
2023/04/18 02:32:07;;;;;;;21.02;18.02;;;;;;;;;;4994896;28;20802;-51
2023/04/18 02:34:33;;;;;;;21.20;18.92;;;;;;;;;;4995024;28;20251;-51
2023/04/18 02:36:59;;;;;;;24.13;19.40;;;;;;;;;;4993961;28;20181;-51
2023/04/18 02:39:25;;;;;;;19.70;17.60;;;;;;;;;;4993738;28;20569;-51
2023/04/18 02:41:51;;;;;;;19.77;17.65;;;;;;;;;;4989768;28;20242;-51
2023/04/18 02:44:17;;;;;;;19.13;17.10;;;;;;;;;;4993054;28;20881;-51
2023/04/18 02:46:43;;;;;;;19.70;17.75;;;;;;;;;;4990611;28;20185;-52
2023/04/18 02:49:09;;;;;;;17.25;15.52;;;;;;;;;;4993831;28;20209;-51
2023/04/18 02:51:35;;;;;;;19.08;16.98;;;;;;;;;;4995042;28;20177;-51
2023/04/18 02:54:01;;;;;;;19.42;17.17;;;;;;;;;;4994033;28;20694;-51
2023/04/18 02:56:27;;;;;;;17.77;15.88;;;;;;;;;;4994332;28;20209;-51
2023/04/18 02:58:52;;;;;;;17.83;16.02;;;;;;;;;;4993340;28;20228;-51
2023/04/18 03:01:18;;;;;;;17.45;15.68;;;;;;;;;;4993937;28;20231;-51
2023/04/18 03:03:44;;;;;;;17.27;15.40;;;;;;;;;;4993706;28;20576;-51
2023/04/18 03:06:11;;;;;;;16.77;15.07;;;;;;;;;;4994231;28;20195;-51
2023/04/18 03:08:37;;;;;;;16.98;15.18;;;;;;;;;;4994298;28;20181;-51
2023/04/18 03:11:03;;;;;;;17.23;15.40;;;;;;;;;;4978698;28;20199;-51
2023/04/18 03:13:28;;;;;;;15.77;13.90;;;;;;;;;;4992747;28;20553;-51
2023/04/18 03:15:55;;;;;;;15.88;13.88;;;;;;;;;;4993757;28;20212;-51
2023/04/18 03:18:21;;;;;;;14.80;13.20;;;;;;;;;;4996851;28;20185;-52
2023/04/18 03:20:47;;;;;;;18.60;14.90;;;;;;;;;;4997368;28;20438;-51
2023/04/18 03:23:12;;;;;;;14.98;13.38;;;;;;;;;;4998240;28;20193;-51
2023/04/18 03:25:38;;;;;;;15.05;13.52;;;;;;;;;;4996650;28;20212;-51
2023/04/18 03:28:04;;;;;;;14.15;12.75;;;;;;;;;;4996878;28;20203;-51
2023/04/18 03:30:31;;;;;;;15.07;13.48;;;;;;;;;;4998085;28;20204;-52
2023/04/18 03:32:58;;;;;;;13.25;11.88;;;;;;;;;;4997601;28;20189;-51
2023/04/18 03:35:24;;;;;;;13.23;11.88;;;;;;;;;;4997541;28;20201;-51
2023/04/18 03:37:50;;;;;;;13.40;12.00;;;;;;;;;;4997444;28;20184;-51
2023/04/18 03:40:16;;;;;;;14.00;12.38;;;;;;;;;;4997826;28;20181;-51
2023/04/18 03:42:42;;;;;;;13.52;11.45;;;;;;;;;;4995897;28;20460;-51
2023/04/18 03:45:08;;;;;;;11.90;10.60;;;;;;;;;;4994562;28;20189;-51
2023/04/18 03:47:34;;;;;;;12.15;10.85;;;;;;;;;;4995942;28;20197;-51
2023/04/18 03:49:59;;;;;;;11.75;10.50;;;;;;;;;;4996579;28;20251;-51
2023/04/18 03:52:25;;;;;;;12.18;10.93;;;;;;;;;;4996095;28;20463;-51
2023/04/18 03:54:51;;;;;;;11.75;10.52;;;;;;;;;;4995184;28;20259;-51
2023/04/18 03:57:17;;;;;;;10.80;9.68;;;;;;;;;;4995627;28;20189;-51
2023/04/18 03:59:43;;;;;;;11.68;10.20;;;;;;;;;;4996988;28;20299;-51
2023/04/18 04:02:09;;;;;;;11.70;10.50;;;;;;;;;;4996540;28;20189;-52
2023/04/18 04:04:35;;;;;;;11.30;10.07;;;;;;;;;;4996624;28;20181;-51
2023/04/18 04:07:01;;;;;;;14.20;9.55;;;;;;;;;;4996452;28;20185;-51
2023/04/18 04:09:27;;;;;;;12.27;10.35;;;;;;;;;;4997867;28;20192;-52
2023/04/18 04:11:53;;;;;;;10.60;9.13;;;;;;;;;;4995736;28;20474;-51
2023/04/18 04:14:20;;;;;;;10.70;9.60;;;;;;;;;;4996625;28;20192;-51
2023/04/18 04:16:46;;;;;;;12.00;9.60;;;;;;;;;;4995864;28;20177;-51
2023/04/18 04:19:12;;;;;;;11.50;9.00;;;;;;;;;;4995914;28;20236;-51
2023/04/18 04:21:38;;;;;;;10.35;8.73;;;;;;;;;;4996734;28;20213;-52
2023/04/18 04:24:05;;;;;;;11.15;8.98;;;;;;;;;;4996421;28;20232;-51
2023/04/18 04:26:31;;;;;;;11.57;9.30;;;;;;;;;;4995707;28;20236;-51
2023/04/18 04:28:57;;;;;;;9.98;8.40;;;;;;;;;;4996135;28;20185;-51
2023/04/18 04:31:23;;;;;;;10.90;8.77;;;;;;;;;;4996904;28;20511;-51
2023/04/18 04:33:49;;;;;;;11.05;8.70;;;;;;;;;;4996009;28;20189;-51
2023/04/18 04:36:15;;;;;;;10.85;8.40;;;;;;;;;;4995531;28;20215;-51
2023/04/18 04:38:43;;;;;;;9.43;8.40;;;;;;;;;;4996951;28;20572;-51
2023/04/18 04:41:09;;;;;;;13.38;9.18;;;;;;;;;;4995297;28;20199;-51
2023/04/18 04:43:35;;;;;;;8.93;7.75;;;;;;;;;;4995274;28;20185;-51
2023/04/18 04:46:04;;;;;;;9.88;8.23;;;;;;;;;;4995557;28;20181;-51
2023/04/18 04:48:30;;;;;;;9.68;7.18;;;;;;;;;;4995982;28;20565;-52
2023/04/18 04:50:59;;;;;;;9.02;7.82;;;;;;;;;;4996217;28;20192;-51
2023/04/18 04:53:26;;;;;;;8.80;7.22;;;;;;;;;;4996754;28;20248;-51
2023/04/18 04:55:52;;;;;;;9.77;7.90;;;;;;;;;;4993494;28;20212;-51
2023/04/18 04:58:18;;;;;;;9.98;7.10;;;;;;;;;;4995307;28;20515;-51
2023/04/18 05:00:45;;;;;;;9.07;7.68;;;;;;;;;;4995410;28;20181;-51
2023/04/18 05:03:10;;;;;;;10.43;8.18;;;;;;;;;;4996075;28;20188;-51
2023/04/18 05:05:37;;;;;;;8.65;7.75;;;;;;;;;;4994799;28;20193;-51
2023/04/18 05:08:03;;;;;;;7.93;7.10;;;;;;;;;;4995401;28;20272;-51
2023/04/18 05:10:29;;;;;;;8.93;7.05;;;;;;;;;;4995387;28;20189;-51
2023/04/18 05:12:55;;;;;;;9.48;6.93;;;;;;;;;;4995692;28;20181;-51
2023/04/18 05:15:22;;;;;;;10.07;7.53;;;;;;;;;;4995222;28;20320;-51
2023/04/18 05:17:48;;;;;;;9.55;7.50;;;;;;;;;;4995299;28;20189;-52
2023/04/18 05:20:14;;;;;;;7.97;6.38;;;;;;;;;;4994975;28;20236;-51
2023/04/18 05:22:40;;;;;;;9.18;6.70;;;;;;;;;;4995722;28;20244;-51
2023/04/18 05:25:07;;;;;;;8.68;6.85;;;;;;;;;;4994055;28;20577;-51
2023/04/18 05:27:33;;;;;;;9.07;6.55;;;;;;;;;;4994452;28;20189;-51
2023/04/18 05:29:58;;;;;;;8.00;7.20;;;;;;;;;;4994545;28;20185;-51
2023/04/18 05:32:24;;;;;;;9.38;7.28;;;;;;;;;;4995347;28;20510;-51
2023/04/18 05:34:50;;;;;;;8.23;6.03;;;;;;;;;;4995471;28;20288;-50
2023/04/18 05:37:16;;;;;;;7.03;6.15;;;;;;;;;;4995520;28;20464;-51
2023/04/18 05:39:42;;;;;;;7.50;6.50;;;;;;;;;;4994977;28;20281;-51
2023/04/18 05:42:08;;;;;;;6.88;6.10;;;;;;;;;;4995888;28;20456;-51
2023/04/18 05:44:34;;;;;;;8.45;6.80;;;;;;;;;;4993987;28;20189;-51
2023/04/18 05:47:00;;;;;;;7.50;6.32;;;;;;;;;;4995126;28;20215;-51
2023/04/18 05:49:26;;;;;;;7.78;6.28;;;;;;;;;;4995913;28;20184;-51
2023/04/18 05:51:52;;;;;;;6.20;5.60;;;;;;;;;;4996162;28;20181;-51
2023/04/18 05:54:20;;;;;;;6.47;5.65;;;;;;;;;;4995157;28;20240;-51
2023/04/18 05:56:46;;;;;;;7.75;5.95;;;;;;;;;;4995242;28;20185;-51
2023/04/18 05:59:12;;;;;;;8.60;6.07;;;;;;;;;;4995498;28;20476;-51
2023/04/18 06:01:38;;;;;;;5.30;4.75;;;;;;;;;;4995278;28;20472;-51
2023/04/18 06:04:04;;;;;;;7.10;5.88;;;;;;;;;;4995500;28;20185;-51
2023/04/18 06:06:30;;;;;;;6.78;5.47;;;;;;;;;;4995238;28;20184;-51
2023/04/18 06:08:56;;;;;;;5.38;4.88;;;;;;;;;;4995047;28;20193;-51
2023/04/18 06:11:22;;;;;;;7.32;5.95;;;;;;;;;;4995474;28;20232;-51
2023/04/18 06:13:48;;;;;;;7.38;5.60;;;;;;;;;;4995147;28;20200;-51
2023/04/18 06:16:14;;;;;;;5.95;5.20;;;;;;;;;;4994693;28;20212;-51
2023/04/18 06:18:40;;;;;;;8.18;5.63;;;;;;;;;;4995088;28;20177;-51
2023/04/18 06:21:06;;;;;;;6.90;5.57;;;;;;;;;;4995272;28;20200;-51
2023/04/18 06:23:32;;;;;;;6.32;5.72;;;;;;;;;;4995461;28;20188;-51
2023/04/18 06:25:58;;;;;;;7.65;5.30;;;;;;;;;;4994732;28;20232;-51
2023/04/18 06:28:25;;;;;;;6.97;5.53;;;;;;;;;;4994760;28;20296;-51
2023/04/18 06:30:50;;;;;;;5.85;5.25;;;;;;;;;;4994879;28;20208;-51
2023/04/18 06:33:16;;;;;;;6.00;5.40;;;;;;;;;;4995214;28;20196;-51
2023/04/18 06:35:42;;;;;;;6.03;5.25;;;;;;;;;;4994892;28;20220;-51
2023/04/18 06:38:10;;;;;;;6.15;5.50;;;;;;;;;;4994786;28;20568;-51
2023/04/18 06:40:36;;;;;;;5.40;4.90;;;;;;;;;;4978304;28;20557;-51
2023/04/18 06:43:02;;;;;;;6.78;5.38;;;;;;;;;;4992734;28;20196;-52
2023/04/18 06:45:29;;;;;;;7.07;5.60;;;;;;;;;;4994789;28;20231;-51
2023/04/18 06:47:55;;;;;;;6.40;5.22;;;;;;;;;;4994677;28;20185;-51
2023/04/18 06:50:21;;;;;;;8.00;5.70;;;;;;;;;;4995112;28;20184;-51
2023/04/18 06:52:47;;;;;;;8.23;5.53;;;;;;;;;;4994705;28;20276;-51
2023/04/18 06:55:13;;;;;;;5.65;5.07;;;;;;;;;;4994098;28;20425;-51
2023/04/18 06:57:40;;;;;;;6.32;5.15;;;;;;;;;;4991978;28;20267;-50
2023/04/18 07:00:07;;;;;;;6.15;5.47;;;;;;;;;;4992638;28;20569;-50
2023/04/18 07:02:34;;;;;;;8.18;5.47;;;;;;;;;;4994220;28;20201;-50
2023/04/18 07:05:00;;;;;;;5.90;5.30;;;;;;;;;;4994108;28;20185;-50
2023/04/18 07:07:26;;;;;;;6.10;5.50;;;;;;;;;;4994596;28;20420;-50
2023/04/18 07:09:52;;;;;;;5.57;5.05;;;;;;;;;;4993268;28;20177;-51
2023/04/18 07:12:18;;;;;;;5.90;4.93;;;;;;;;;;4994412;28;20296;-51
2023/04/18 07:14:44;;;;;;;5.90;5.30;;;;;;;;;;4994255;28;20208;-52
2023/04/18 07:17:10;;;;;;;6.68;5.07;;;;;;;;;;4993637;28;20177;-51
2023/04/18 07:19:36;;;;;;;5.70;4.65;;;;;;;;;;4995174;28;20208;-51
2023/04/18 07:22:02;;;;;;;5.40;4.90;;;;;;;;;;4994483;28;20674;-52
2023/04/18 07:24:28;;;;;;;6.43;5.13;;;;;;;;;;4994428;28;20192;-51
2023/04/18 07:26:54;;;;;;;5.22;4.68;;;;;;;;;;4993899;28;20182;-50
2023/04/18 07:29:20;;;;;;;5.32;4.60;;;;;;;;;;4994768;28;20227;-51
2023/04/18 07:31:46;;;;;;;5.63;4.80;;;;;;;;;;4994459;28;20227;-51
2023/04/18 07:34:15;;;;;;;5.43;4.53;;;;;;;;;;4977502;28;20191;-51
2023/04/18 07:36:41;;;;;;;6.30;5.13;;;;;;;;;;4994620;28;20251;-51
2023/04/18 07:39:07;;;;;;;5.78;4.75;;;;;;;;;;4993767;28;20308;-52
2023/04/18 07:41:34;;;;;;;5.45;4.88;;;;;;;;;;4994222;28;20779;-52
2023/04/18 07:44:00;;;;;;;5.70;5.10;;;;;;;;;;4993257;28;20196;-51
2023/04/18 07:46:26;;;;;;;6.18;5.43;;;;;;;;;;4992340;28;20181;-50
2023/04/18 07:48:52;;;;;;;5.35;4.80;;;;;;;;;;4993209;28;20483;-51
2023/04/18 07:51:18;;;;;;;5.55;5.00;;;;;;;;;;4993901;28;20208;-51
2023/04/18 07:53:44;;;;;;;6.03;4.85;;;;;;;;;;4991335;28;20200;-51
2023/04/18 07:56:11;;;;;;;7.35;5.05;;;;;;;;;;4992359;28;20217;-51
2023/04/18 07:58:37;;;;;;;5.10;4.60;;;;;;;;;;4992436;28;20612;-51
2023/04/18 08:01:04;;;;;;;5.65;4.90;;;;;;;;;;4992279;28;20448;-51
2023/04/18 08:03:33;;;;;;;5.65;4.72;;;;;;;;;;4991170;28;20727;-51
2023/04/18 08:05:59;;;;;;;6.07;4.90;;;;;;;;;;4999635;28;20189;-51
2023/04/18 08:08:24;;;;;;;5.20;4.70;;;;;;;;;;4996885;28;20209;-52
2023/04/18 08:10:50;;;;;;;5.72;5.13;;;;;;;;;;4997159;28;20203;-51
2023/04/18 08:13:16;;;;;;;6.28;4.88;;;;;;;;;;4996751;28;20683;-49
2023/04/18 08:15:42;;;;;;;5.65;5.03;;;;;;;;;;4996399;28;20211;-49
2023/04/18 08:18:08;;;;;;;6.25;5.00;;;;;;;;;;4995984;28;20185;-50
2023/04/18 08:20:36;;;;;;;5.75;4.57;;;;;;;;;;4997230;28;20212;-50
2023/04/18 08:23:02;;;;;;;6.07;5.10;;;;;;;;;;4996073;28;20177;-49
2023/04/18 08:25:28;;;;;;;5.70;4.90;;;;;;;;;;4995881;28;20240;-50
2023/04/18 08:27:54;;;;;;;5.40;4.57;;;;;;;;;;4997143;28;20185;-50
2023/04/18 08:30:20;;;;;;;5.57;5.03;;;;;;;;;;4997236;28;20189;-50
2023/04/18 08:32:46;;;;;;;5.55;4.65;;;;;;;;;;4996792;28;20186;-50
2023/04/18 08:35:12;;;;;;;5.30;4.80;;;;;;;;;;4996128;28;20270;-50
2023/04/18 08:37:38;;;;;;;5.93;4.50;;;;;;;;;;4996825;28;20566;-50
2023/04/18 08:40:06;;;;;;;5.05;4.40;;;;;;;;;;4996663;28;20239;-51
2023/04/18 08:42:32;;;;;;;6.15;4.90;;;;;;;;;;4997082;28;20216;-50
2023/04/18 08:44:59;;;;;;;5.63;4.70;;;;;;;;;;4994840;28;20188;-50
2023/04/18 08:47:25;;;;;;;5.70;4.90;;;;;;;;;;4996581;28;20185;-51
2023/04/18 08:49:52;;;;;;;5.13;4.63;;;;;;;;;;4997194;28;20553;-51
2023/04/18 08:52:18;;;;;;;5.40;4.70;;;;;;;;;;4992359;28;20185;-51
2023/04/18 08:54:45;;;;;;;5.35;4.70;;;;;;;;;;4996154;28;20224;-51
2023/04/18 08:57:12;;;;;;;6.20;4.43;;;;;;;;;;4995144;28;20185;-51
2023/04/18 08:59:38;;;;;;;5.10;4.60;;;;;;;;;;4995728;28;20205;-51
2023/04/18 09:02:07;;;;;;;5.88;4.72;;;;;;;;;;4995114;28;20269;-51
2023/04/18 09:04:44;;;;;;;6.20;5.10;;;;;;;;;;4978871;28;20243;-51
2023/04/18 09:07:11;;;;;;;7.05;5.50;;;;;;;;;;4995704;28;20227;-51
2023/04/18 09:09:44;;;;;;;5.68;5.10;;;;;;;;;;4996275;28;20208;-51
2023/04/18 09:12:13;;;;;;;5.88;5.07;;;;;;;;;;4996148;28;20182;-51
2023/04/18 09:14:44;;;;;;;5.38;4.78;;;;;;;;;;4994924;28;20220;-51
2023/04/18 09:17:11;;;;;;;5.75;4.95;;;;;;;;;;4978012;28;20449;-50
2023/04/18 09:19:45;;;;;;;5.72;5.13;;;;;;;;;;4995862;28;20183;-51
2023/04/18 09:22:11;;;;;;;5.45;4.75;;;;;;;;;;4993217;28;20285;-50
2023/04/18 09:24:37;;;;;;;6.03;5.25;;;;;;;;;;4993318;28;20572;-51
2023/04/18 09:27:03;;;;;;;5.15;4.65;;;;;;;;;;4996754;28;20181;-50
2023/04/18 09:29:45;;;;;;;5.50;4.90;;;;;;;;;;4995334;28;20185;-50
2023/04/18 09:32:19;;;;;;;6.15;5.03;;;;;;;;;;4994640;28;20327;-50
2023/04/18 09:34:46;;;;;;;5.90;4.95;;;;;;;;;;4994625;28;21769;-51
2023/04/18 09:37:12;;;;;;;5.55;4.95;;;;;;;;;;4996635;28;20189;-50
2023/04/18 09:39:39;;;;;;;5.35;4.63;;;;;;;;;;4993153;28;20180;-50
2023/04/18 09:42:05;;;;;;;5.00;4.55;;;;;;;;;;4991732;28;20185;-50
2023/04/18 09:44:31;;;;;;;5.65;4.60;;;;;;;;;;4991984;28;20235;-50
2023/04/18 09:46:57;;;;;;;6.03;4.80;;;;;;;;;;4989162;28;20181;-51
2023/04/18 09:49:23;;;;;;;5.53;5.00;;;;;;;;;;4993122;28;20185;-50
2023/04/18 09:51:53;;;;;;;6.10;4.55;;;;;;;;;;4995599;28;20215;-50
2023/04/18 09:54:19;;;;;;;5.43;4.55;;;;;;;;;;4994449;28;20215;-50
2023/04/18 09:56:46;;;;;;;5.25;4.70;;;;;;;;;;4994832;28;20256;-50
2023/04/18 09:59:15;;;;;;;5.88;5.05;;;;;;;;;;4995150;28;20252;-51
2023/04/18 10:01:44;;;;;;;4.97;4.45;;;;;;;;;;4995473;28;20173;-50
2023/04/18 10:04:11;;;;;;;5.13;4.63;;;;;;;;;;4994472;28;20181;-50
2023/04/18 10:06:38;;;;;;;5.75;5.10;;;;;;;;;;4994907;28;20267;-50
2023/04/18 10:09:05;;;;;;;5.75;4.97;;;;;;;;;;4994770;28;20181;-50
2023/04/18 10:11:31;;;;;;;6.00;4.80;;;;;;;;;;4995232;28;20181;-51
2023/04/18 10:14:00;;;;;;;5.05;4.55;;;;;;;;;;4994755;28;20199;-51
2023/04/18 10:16:27;;;;;;;5.63;4.72;;;;;;;;;;4994955;28;20197;-50
2023/04/18 10:18:53;;;;;;;5.28;4.78;;;;;;;;;;4994644;28;20173;-50
2023/04/18 10:21:20;;;;;;;5.35;4.70;;;;;;;;;;4987913;28;20181;-51
2023/04/18 10:23:47;;;;;;;5.50;4.68;;;;;;;;;;4994954;28;20268;-50
2023/04/18 10:26:14;;;;;;;5.47;4.43;;;;;;;;;;4993931;28;20227;-51
2023/04/18 10:28:56;;;;;;;5.15;4.63;;;;;;;;;;4994041;28;20181;-51
2023/04/18 10:31:23;;;;;;;5.13;4.63;;;;;;;;;;4995159;28;20181;-50
2023/04/18 10:33:49;;;;;;;5.13;4.57;;;;;;;;;;4994522;28;20207;-51
2023/04/18 10:36:18;;;;;;;4.68;4.28;;;;;;;;;;4994598;28;20255;-51
2023/04/18 10:38:52;;;;;;;5.60;4.97;;;;;;;;;;4996529;28;20177;-50
2023/04/18 10:41:22;;;;;;;4.95;4.45;;;;;;;;;;4994091;28;20193;-50
2023/04/18 10:44:06;;;;;;;5.10;4.60;;;;;;;;;;4992652;28;20564;-51
2023/04/18 10:46:42;;;;;;;5.07;4.57;;;;;;;;;;4994333;28;20177;-50
2023/04/18 10:49:22;;;;;;;5.00;4.50;;;;;;;;;;4993721;28;20259;-51
2023/04/18 10:51:49;;;;;;;5.75;4.75;;;;;;;;;;4995051;28;20189;-51
2023/04/18 10:54:27;;;;;;;5.45;4.88;;;;;;;;;;4993354;28;20211;-50
2023/04/18 10:56:53;;;;;;;4.85;4.35;;;;;;;;;;4990356;28;20181;-50
2023/04/18 10:59:21;;;;;;;4.40;4.00;;;;;;;;;;4994182;28;20216;-51
2023/04/18 11:01:49;;;;;;;5.35;4.65;;;;;;;;;;4977583;28;20799;-51
2023/04/18 11:04:16;;;;;;;5.00;4.40;;;;;;;;;;4993351;28;20656;-51
2023/04/18 11:06:54;;;;;;;5.60;4.97;;;;;;;;;;4993442;28;20203;-51
2023/04/18 11:09:21;;;;;;;6.03;5.07;;;;;;;;;;4994039;28;20199;-51
2023/04/18 11:12:02;;;;;;;5.80;4.80;;;;;;;;;;4993343;28;20181;-51
2023/04/18 11:14:38;;;;;;;6.07;5.18;;;;;;;;;;4994321;28;20268;-51
2023/04/18 11:17:20;;;;;;;6.70;5.45;;;;;;;;;;4993653;28;20185;-51
2023/04/18 11:19:46;;;;;;;6.82;5.32;;;;;;;;;;4994039;28;20235;-51
2023/04/18 11:22:12;;;;;;;6.97;5.28;;;;;;;;;;4993605;28;20185;-52
2023/04/18 11:24:38;;;;;;;6.80;5.43;;;;;;;;;;4993569;28;20237;-51
2023/04/18 11:27:05;;;;;;;6.75;5.38;;;;;;;;;;4993540;28;20192;-51
2023/04/18 11:29:34;;;;;;;6.97;5.60;;;;;;;;;;4992824;28;20200;-51
2023/04/18 11:32:00;;;;;;;7.65;6.00;;;;;;;;;;4994262;28;20177;-51
2023/04/18 11:34:31;;;;;;;8.20;5.85;;;;;;;;;;4993638;28;20180;-50
2023/04/18 11:36:57;;;;;;;6.93;5.50;;;;;;;;;;4993587;28;20177;-51
2023/04/18 11:39:23;;;;;;;7.82;5.70;;;;;;;;;;4990854;28;20177;-51
2023/04/18 11:41:49;;;;;;;7.72;5.80;;;;;;;;;;4998299;28;20239;-51
2023/04/18 11:44:25;;;;;;;5.90;5.30;;;;;;;;;;4997380;28;20642;-51
2023/04/18 11:46:51;;;;;;;6.93;5.80;;;;;;;;;;4996290;28;20580;-51
2023/04/18 11:49:31;;;;;;;6.95;5.72;;;;;;;;;;4997083;28;20221;-50
2023/04/18 11:51:57;;;;;;;7.65;5.95;;;;;;;;;;4997577;28;20501;-51
2023/04/18 11:54:36;;;;;;;7.35;5.78;;;;;;;;;;4996095;28;20211;-51
2023/04/18 11:57:02;;;;;;;6.57;5.57;;;;;;;;;;4993987;28;20196;-51
2023/04/18 11:59:28;;;;;;;6.95;5.43;;;;;;;;;;4997728;28;20212;-51
2023/04/18 12:02:01;;;;;;;6.70;5.53;;;;;;;;;;4996917;28;20258;-51
2023/04/18 12:04:27;;;;;;;7.25;6.22;;;;;;;;;;4996572;28;20208;-51
2023/04/18 12:06:54;;;;;;;6.70;5.43;;;;;;;;;;4997024;28;20177;-51
2023/04/18 12:09:20;;;;;;;6.10;5.22;;;;;;;;;;4980447;28;20296;-51
2023/04/18 12:11:59;;;;;;;6.97;5.60;;;;;;;;;;4996415;28;20463;-49
2023/04/18 12:14:25;;;;;;;6.03;5.18;;;;;;;;;;4997184;28;20498;-51
2023/04/18 12:16:51;;;;;;;7.40;5.70;;;;;;;;;;4996883;28;20429;-50
2023/04/18 12:19:19;;;;;;;5.78;4.97;;;;;;;;;;4995606;28;20189;-51
2023/04/18 12:21:55;;;;;;;7.50;5.53;;;;;;;;;;4997361;28;20170;-51
2023/04/18 12:24:23;;;;;;;6.18;5.57;;;;;;;;;;4997105;28;20173;-51
2023/04/18 12:26:49;;;;;;;6.90;5.28;;;;;;;;;;4996531;28;20188;-51
2023/04/18 12:29:16;;;;;;;6.32;5.03;;;;;;;;;;4997000;28;20216;-50
2023/04/18 12:31:42;;;;;;;7.47;5.32;;;;;;;;;;4996984;28;20181;-51
2023/04/18 12:34:08;;;;;;;7.10;5.30;;;;;;;;;;4995378;28;20624;-51
2023/04/18 12:36:34;;;;;;;6.97;5.25;;;;;;;;;;4996155;28;20885;-51
2023/04/18 12:38:59;;;;;;;6.63;5.22;;;;;;;;;;4996954;28;20185;-51
2023/04/18 12:41:25;;;;;;;6.10;4.80;;;;;;;;;;4997042;28;20189;-50
2023/04/18 12:43:51;;;;;;;6.75;4.70;;;;;;;;;;4996596;28;20181;-51
2023/04/18 12:46:17;;;;;;;6.07;4.95;;;;;;;;;;4995907;28;20208;-52
2023/04/18 12:48:43;;;;;;;5.68;4.85;;;;;;;;;;4995897;28;20192;-51
2023/04/18 12:51:09;;;;;;;5.13;4.63;;;;;;;;;;4996904;28;20272;-51
2023/04/18 12:53:35;;;;;;;6.85;5.10;;;;;;;;;;4994359;28;20193;-51
2023/04/18 12:56:01;;;;;;;6.15;4.88;;;;;;;;;;4992367;28;20205;-51
2023/04/18 12:58:27;;;;;;;5.82;4.90;;;;;;;;;;4995906;28;20225;-49
2023/04/18 13:00:53;;;;;;;6.45;5.20;;;;;;;;;;4992671;28;20339;-51
2023/04/18 13:03:19;;;;;;;9.02;5.78;;;;;;;;;;4979366;28;20589;-52
2023/04/18 13:05:45;;;;;;;8.15;5.82;;;;;;;;;;4994835;28;20657;-51
2023/04/18 13:08:11;;;;;;;15.90;8.43;;;;;;;;;;4995742;28;20185;-52
2023/04/18 13:10:37;;;;;;;27.15;11.55;;;;;;;;;;4996523;28;20193;-51
2023/04/18 13:13:03;;;;;;;38.75;15.20;;;;;;;;;;4995225;28;20216;-50
2023/04/18 13:15:28;;;;;;;46.40;17.38;;;;;;;;;;4995361;28;20208;-52
2023/04/18 13:17:55;;;;;;;49.50;18.27;;;;;;;;;;4995801;28;20209;-51
2023/04/18 13:20:21;;;;;;;49.65;20.40;;;;;;;;;;4996029;28;20173;-51
2023/04/18 13:22:47;;;;;;;57.88;20.80;;;;;;;;;;4996737;28;20185;-51
2023/04/18 13:25:13;;;;;;;59.25;21.92;;;;;;;;;;4992898;28;20185;-52
2023/04/18 13:27:40;;;;;;;56.10;21.50;;;;;;;;;;4994891;28;20605;-52
2023/04/18 13:30:06;;;;;;;57.05;24.38;;;;;;;;;;4994482;28;20193;-51
2023/04/18 13:32:32;;;;;;;63.63;23.95;;;;;;;;;;4995228;28;20185;-51
2023/04/18 13:34:58;;;;;;;64.22;23.67;;;;;;;;;;4995522;28;20608;-51
2023/04/18 13:37:24;;;;;;;60.05;24.48;;;;;;;;;;4995162;28;20205;-51
2023/04/18 13:39:50;;;;;;;66.82;24.38;;;;;;;;;;4995192;28;20501;-51
2023/04/18 13:42:18;;;;;;;60.10;24.63;;;;;;;;;;4994463;28;20181;-51
2023/04/18 13:44:46;;;;;;;60.45;25.40;;;;;;;;;;4994157;28;20174;-51
2023/04/18 13:47:12;;;;;;;58.15;24.70;;;;;;;;;;4992708;28;20185;-51
2023/04/18 13:49:38;;;;;;;70.65;25.73;;;;;;;;;;4995847;28;20545;-51
2023/04/18 13:52:04;;;;;;;58.78;26.17;;;;;;;;;;4994808;28;20284;-51
2023/04/18 13:54:30;;;;;;;61.40;25.70;;;;;;;;;;4995380;28;20201;-52
2023/04/18 13:56:57;;;;;;;61.00;24.60;;;;;;;;;;4995833;28;20209;-52
2023/04/18 13:59:23;;;;;;;73.05;27.05;;;;;;;;;;4993562;28;20516;-51
2023/04/18 14:01:49;;;;;;;69.63;27.70;;;;;;;;;;4993368;28;20207;-51
2023/04/18 14:04:15;;;;;;;69.97;26.92;;;;;;;;;;4993695;28;20204;-51
2023/04/18 14:06:41;;;;;;;78.10;28.45;;;;;;;;;;4991259;28;20185;-51
2023/04/18 14:09:07;;;;;;;62.08;25.83;;;;;;;;;;4993111;28;20503;-51
2023/04/18 14:11:34;;;;;;;66.30;25.63;;;;;;;;;;4993422;28;20227;-49
2023/04/18 14:14:00;;;;;;;61.42;23.55;;;;;;;;;;4994106;28;20193;-51
2023/04/18 14:16:32;;;;;;;55.25;23.80;;;;;;;;;;4994048;28;20220;-51
2023/04/18 14:18:58;;;;;;;57.33;21.88;;;;;;;;;;4989484;28;20228;-51
2023/04/18 14:21:25;;;;;;;58.90;22.42;;;;;;;;;;4987192;28;20173;-51
2023/04/18 14:23:51;;;;;;;47.38;20.30;;;;;;;;;;4994538;28;20196;-52
2023/04/18 14:26:17;;;;;;;55.33;21.98;;;;;;;;;;4995043;28;20217;-51
2023/04/18 14:28:43;;;;;;;57.83;22.08;;;;;;;;;;4994293;28;20592;-51
2023/04/18 14:31:09;;;;;;;51.67;20.83;;;;;;;;;;4994025;28;20192;-51